createdAt,value
2023-01-11T00:00:35.399Z,100618.23
2023-01-11T00:02:40.027Z,100615
2023-01-11T00:04:44.641Z,100609.45
2023-01-11T00:06:49.403Z,100606.38
2023-01-11T00:08:53.984Z,100605.46
2023-01-11T00:10:58.451Z,100607.13
2023-01-11T00:13:02.981Z,100610.61
2023-01-11T00:15:07.515Z,100613.2
2023-01-11T00:17:11.965Z,100611.03
2023-01-11T00:19:16.386Z,100607.88
2023-01-11T00:21:20.875Z,100608.31
2023-01-11T00:23:25.327Z,100605.52
2023-01-11T00:25:30.028Z,100602.16
2023-01-11T00:27:34.544Z,100599.8
2023-01-11T00:29:39.038Z,100602.43
2023-01-11T00:31:43.584Z,100602.98
2023-01-11T00:33:48.209Z,100600.73
2023-01-11T00:35:52.727Z,100601.95
2023-01-11T00:37:57.177Z,100597.7
2023-01-11T00:40:01.613Z,100601.48
2023-01-11T00:42:06.068Z,100602.55
2023-01-11T00:44:10.524Z,100604.38
2023-01-11T00:46:15.145Z,100602.78
2023-01-11T00:48:19.740Z,100602.38
2023-01-11T00:50:24.179Z,100607.15
2023-01-11T00:52:28.589Z,100604.97
2023-01-11T00:54:33.019Z,100605.69
2023-01-11T00:56:37.466Z,100607.33
2023-01-11T00:58:41.884Z,100601.4
2023-01-11T01:00:46.356Z,100602.55
2023-01-11T01:02:50.981Z,100600.89
2023-01-11T01:04:55.615Z,100596.91
2023-01-11T01:07:00.115Z,100595.23
2023-01-11T01:09:04.622Z,100595.68
2023-01-11T01:11:09.039Z,100594.08
2023-01-11T01:13:13.521Z,100592.72
2023-01-11T01:15:17.953Z,100595.85
2023-01-11T01:17:22.415Z,100596.91
2023-01-11T01:19:26.838Z,100595.69
2023-01-11T01:21:31.369Z,100594.22
2023-01-11T01:23:35.778Z,100592.08
2023-01-11T01:25:40.228Z,100590.58
2023-01-11T01:27:44.671Z,100588.06
2023-01-11T01:29:49.086Z,100582.38
2023-01-11T01:31:53.504Z,100584.76
2023-01-11T01:33:58.135Z,100585.74
2023-01-11T01:36:02.611Z,100586.26
2023-01-11T01:38:07.052Z,100578.83
2023-01-11T01:40:11.479Z,100578.02
2023-01-11T01:42:15.966Z,100575.16
2023-01-11T01:44:20.406Z,100575.47
2023-01-11T01:46:24.980Z,100573.52
2023-01-11T01:48:29.547Z,100572.74
2023-01-11T01:50:33.946Z,100569.03
2023-01-11T01:52:38.608Z,100568.28
2023-01-11T01:54:43.027Z,100568.45
2023-01-11T01:56:47.429Z,100566.13
2023-01-11T01:58:51.943Z,100559.05
2023-01-11T02:00:56.454Z,100556.22
2023-01-11T02:03:01.056Z,100552.34
2023-01-11T02:05:05.671Z,100556.53
2023-01-11T02:07:10.149Z,100556.02
2023-01-11T02:09:14.614Z,100559.63
2023-01-11T02:11:19.008Z,100558.88
2023-01-11T02:13:23.434Z,100557.25
2023-01-11T02:15:27.909Z,100551.8
2023-01-11T02:17:32.358Z,100550
2023-01-11T02:19:36.801Z,100549.8
2023-01-11T02:21:41.175Z,100537.8
2023-01-11T02:23:45.616Z,100533.86
2023-01-11T02:25:50.073Z,100532.8
2023-01-11T02:27:54.478Z,100529.39
2023-01-11T02:29:58.897Z,100525.14
2023-01-11T02:32:03.302Z,100522.08
2023-01-11T02:34:07.755Z,100520.72
2023-01-11T02:36:12.188Z,100516.84
2023-01-11T02:38:16.597Z,100512.23
2023-01-11T02:40:21.044Z,100507.16
2023-01-11T02:42:25.479Z,100503.11
2023-01-11T02:44:29.938Z,100504.81
2023-01-11T02:46:34.600Z,100499.41
2023-01-11T02:48:39.064Z,100502.56
2023-01-11T02:50:43.474Z,100507.74
2023-01-11T02:52:47.900Z,100500.16
2023-01-11T02:54:52.426Z,100497.56
2023-01-11T02:56:56.897Z,100495.63
2023-01-11T02:59:01.304Z,100493.78
2023-01-11T03:01:05.762Z,100498.76
2023-01-11T03:03:10.437Z,100493.89
2023-01-11T03:05:15.021Z,100496.23
2023-01-11T03:07:19.481Z,100498.08
2023-01-11T03:09:23.906Z,100495.59
2023-01-11T03:11:28.494Z,100491.5
2023-01-11T03:13:32.990Z,100492.42
2023-01-11T03:15:37.516Z,100491.41
2023-01-11T03:17:42.005Z,100483.23
2023-01-11T03:19:46.481Z,100482.72
2023-01-11T03:21:50.942Z,100487.48
2023-01-11T03:23:55.867Z,100484.25
2023-01-11T03:26:00.297Z,100478.27
2023-01-11T03:28:04.750Z,100473.57
2023-01-11T03:30:09.290Z,100477.92
2023-01-11T03:32:13.763Z,100476.84
2023-01-11T03:34:18.205Z,100471.56
2023-01-11T03:36:22.592Z,100465.44
2023-01-11T03:38:27.010Z,100469.31
2023-01-11T03:40:31.439Z,100462.51
2023-01-11T03:42:35.847Z,100454.34
2023-01-11T03:44:40.314Z,100454.06
2023-01-11T03:46:44.818Z,100455.42
2023-01-11T03:48:49.473Z,100446.69
2023-01-11T03:50:53.835Z,100448.59
2023-01-11T03:52:58.294Z,100450.97
2023-01-11T03:55:02.712Z,100451.75
2023-01-11T03:57:07.244Z,100449.88
2023-01-11T03:59:11.795Z,100444.36
2023-01-11T04:01:16.392Z,100439.84
2023-01-11T04:03:20.913Z,100439.67
2023-01-11T04:05:25.384Z,100434.53
2023-01-11T04:07:29.831Z,100432.46
2023-01-11T04:09:34.295Z,100427.39
2023-01-11T04:11:41.666Z,100429.73
2023-01-11T04:14:22.701Z,100427.31
2023-01-11T04:16:27.204Z,100419.32
2023-01-11T04:18:31.676Z,100422.38
2023-01-11T04:20:36.113Z,100420.75
2023-01-11T04:22:40.638Z,100416.22
2023-01-11T04:24:45.157Z,100413.81
2023-01-11T04:26:49.612Z,100407.86
2023-01-11T04:28:55.507Z,100402.99
2023-01-11T04:30:59.952Z,100403.09
2023-01-11T04:33:04.382Z,100402.69
2023-01-11T04:35:08.921Z,100400.58
2023-01-11T04:37:13.466Z,100402.11
2023-01-11T04:39:17.883Z,100397.61
2023-01-11T04:41:24.737Z,100399.96
2023-01-11T04:43:29.202Z,100395.64
2023-01-11T04:45:33.762Z,100389.55
2023-01-11T04:47:38.343Z,100388.6
2023-01-11T04:49:42.774Z,100397.48
2023-01-11T04:51:47.172Z,100388.56
2023-01-11T04:53:51.709Z,100384.08
2023-01-11T04:55:56.110Z,100384.48
2023-01-11T04:58:00.540Z,100376.97
2023-01-11T05:00:05.037Z,100375.17
2023-01-11T05:02:09.458Z,100369.73
2023-01-11T05:04:14.733Z,100363.84
2023-01-11T05:06:19.291Z,100358.03
2023-01-11T05:08:23.696Z,100356.44
2023-01-11T05:10:28.119Z,100351.63
2023-01-11T05:12:32.495Z,100351.16
2023-01-11T05:14:36.902Z,100352.92
2023-01-11T05:16:41.419Z,100347.38
2023-01-11T05:18:45.946Z,100341.02
2023-01-11T05:20:50.318Z,100342.83
2023-01-11T05:22:54.723Z,100314.94
2023-01-11T05:24:59.235Z,100320.48
2023-01-11T05:27:03.617Z,100312.73
2023-01-11T05:29:08.050Z,100317.5
2023-01-11T05:31:12.421Z,100313.17
2023-01-11T05:33:16.913Z,100314.02
2023-01-11T05:35:21.316Z,100313.09
2023-01-11T05:37:25.685Z,100309.19
2023-01-11T05:39:30.119Z,100310.98
2023-01-11T05:41:34.516Z,100315.13
2023-01-11T05:43:38.876Z,100315.25
2023-01-11T05:45:43.451Z,100313.85
2023-01-11T05:47:47.884Z,100318.23
2023-01-11T05:49:52.241Z,100325.34
2023-01-11T05:51:56.630Z,100328.78
2023-01-11T05:54:01.029Z,100323.7
2023-01-11T05:56:05.408Z,100323.77
2023-01-11T05:58:09.851Z,100321.78
2023-01-11T06:00:14.251Z,100316.27
2023-01-11T06:02:19.103Z,100313.67
2023-01-11T06:04:23.766Z,100318.86
2023-01-11T06:06:28.392Z,100312.39
2023-01-11T06:08:32.898Z,100311.2
2023-01-11T06:10:37.319Z,100309
2023-01-11T06:12:41.715Z,100306.25
2023-01-11T06:14:46.136Z,100301.84
2023-01-11T06:16:50.652Z,100299.78
2023-01-11T06:18:55.121Z,100295.59
2023-01-11T06:20:59.502Z,100299.25
2023-01-11T06:23:03.907Z,100300.8
2023-01-11T06:25:08.307Z,100304.41
2023-01-11T06:27:12.685Z,100302.15
2023-01-11T06:29:17.153Z,100289.75
2023-01-11T06:31:21.817Z,100287.86
2023-01-11T06:33:26.343Z,100287.83
2023-01-11T06:35:30.742Z,100288.73
2023-01-11T06:37:35.134Z,100284.7
2023-01-11T06:39:39.476Z,100281.59
2023-01-11T06:41:43.890Z,100277.15
2023-01-11T06:43:48.281Z,100268.45
2023-01-11T06:45:52.879Z,100265.33
2023-01-11T06:47:57.371Z,100272.23
2023-01-11T06:50:01.774Z,100274.36
2023-01-11T06:52:06.443Z,100276.78
2023-01-11T06:54:11.019Z,100286.87
2023-01-11T06:56:15.515Z,100277.72
2023-01-11T06:58:19.972Z,100277.94
2023-01-11T07:00:24.599Z,100279.36
2023-01-11T07:02:29.130Z,100278.92
2023-01-11T07:04:33.519Z,100279.66
2023-01-11T07:06:38.148Z,100275.2
2023-01-11T07:08:42.501Z,100278.3
2023-01-11T07:10:46.876Z,100277.24
2023-01-11T07:12:51.288Z,100278.13
2023-01-11T07:14:55.705Z,100276.32
2023-01-11T07:17:00.104Z,100273.88
2023-01-11T07:19:04.554Z,100272.49
2023-01-11T07:21:08.942Z,100269.58
2023-01-11T07:23:13.433Z,100269.5
2023-01-11T07:25:17.858Z,100275.28
2023-01-11T07:27:22.246Z,100268.88
2023-01-11T07:29:26.648Z,100265.91
2023-01-11T07:31:31.172Z,100270.1
2023-01-11T07:33:35.759Z,100264.52
2023-01-11T07:35:40.149Z,100262.09
2023-01-11T07:37:44.529Z,100264.69
2023-01-11T07:39:48.945Z,100257.16
2023-01-11T07:41:53.330Z,100260.58
2023-01-11T07:43:57.755Z,100262.05
2023-01-11T07:46:02.434Z,100263.45
2023-01-11T07:48:07.070Z,100257.21
2023-01-11T07:50:11.467Z,100255.64
2023-01-11T07:52:16.026Z,100257.28
2023-01-11T07:54:20.424Z,100256.91
2023-01-11T07:56:24.845Z,100259.42
2023-01-11T07:58:29.232Z,100254.83
2023-01-11T08:00:33.610Z,100253.56
2023-01-11T08:02:38.220Z,100247.83
2023-01-11T08:04:42.831Z,100246.53
2023-01-11T08:06:47.273Z,100247.36
2023-01-11T08:08:51.709Z,100247.19
2023-01-11T08:10:56.183Z,100241.56
2023-01-11T08:13:00.917Z,100236.01
2023-01-11T08:15:05.428Z,100234.88
2023-01-11T08:17:09.886Z,100238.31
2023-01-11T08:19:14.773Z,100234.94
2023-01-11T08:21:19.147Z,100238.47
2023-01-11T08:23:23.560Z,100242.23
2023-01-11T08:25:28.025Z,100245.5
2023-01-11T08:27:32.409Z,100246.02
2023-01-11T08:29:36.786Z,100244.75
2023-01-11T08:31:41.186Z,100242.71
2023-01-11T08:33:45.697Z,100237.98
2023-01-11T08:35:50.147Z,100236.09
2023-01-11T08:37:54.554Z,100234.91
2023-01-11T08:39:58.999Z,100240.48
2023-01-11T08:42:03.379Z,100244.66
2023-01-11T08:44:07.771Z,100250.12
2023-01-11T08:46:12.589Z,100247.44
2023-01-11T08:48:17.109Z,100245.77
2023-01-11T08:50:23.067Z,100243.03
2023-01-11T08:52:27.467Z,100242.45
2023-01-11T08:54:31.886Z,100248.41
2023-01-11T08:56:36.376Z,100243.47
2023-01-11T08:58:40.768Z,100244.34
2023-01-11T09:00:45.212Z,100240.13
2023-01-11T09:02:49.731Z,100243.15
2023-01-11T09:04:54.295Z,100242.7
2023-01-11T09:06:58.711Z,100239.17
2023-01-11T09:09:03.132Z,100240.08
2023-01-11T09:11:07.657Z,100234.8
2023-01-11T09:13:12.061Z,100237.23
2023-01-11T09:15:16.483Z,100236.21
2023-01-11T09:17:20.903Z,100237.75
2023-01-11T09:19:25.446Z,100242.38
2023-01-11T09:21:29.880Z,100241.41
2023-01-11T09:23:34.440Z,100239.36
2023-01-11T09:25:38.837Z,100236.02
2023-01-11T09:27:43.250Z,100227.88
2023-01-11T09:29:47.656Z,100224.41
2023-01-11T09:31:52.118Z,100223.52
2023-01-11T09:33:56.519Z,100218.55
2023-01-11T09:36:00.904Z,100215.41
2023-01-11T09:38:05.274Z,100215.63
2023-01-11T09:40:10.916Z,100205.58
2023-01-11T09:42:17.398Z,100199.91
2023-01-11T09:44:21.826Z,100195.11
2023-01-11T09:46:26.361Z,100198.95
2023-01-11T09:48:30.838Z,100196.19
2023-01-11T09:50:35.265Z,100193.13
2023-01-11T09:52:39.884Z,100194.21
2023-01-11T09:54:44.394Z,100192.7
2023-01-11T09:56:48.908Z,100191.39
2023-01-11T09:58:53.339Z,100191.56
2023-01-11T10:01:00.239Z,100190.97
2023-01-11T10:03:05.540Z,100182.58
2023-01-11T10:05:10.178Z,100179.22
2023-01-11T10:07:14.691Z,100180.33
2023-01-11T10:20:33.481Z,100162.75
2023-01-11T10:22:38.038Z,100161.85
2023-01-11T10:24:43.572Z,100155.68
2023-01-11T10:26:48.107Z,100163.08
2023-01-11T10:28:52.582Z,100162.14
2023-01-11T10:30:57.001Z,100155.2
2023-01-11T10:33:01.428Z,100147.95
2023-01-11T10:35:05.825Z,100142.97
2023-01-11T10:37:10.228Z,100130.95
2023-01-11T10:39:14.701Z,100127.88
2023-01-11T10:41:19.151Z,100118.95
2023-01-11T10:43:23.628Z,100124.84
2023-01-11T10:45:28.192Z,100124.56
2023-01-11T10:47:32.783Z,100122.13
2023-01-11T10:49:37.705Z,100120.02
2023-01-11T10:51:42.292Z,100110.28
2023-01-11T10:53:46.756Z,100106.86
2023-01-11T10:55:51.255Z,100098.75
2023-01-11T10:58:03.884Z,100088.73
2023-01-11T11:00:08.506Z,100084.88
2023-01-11T11:02:13.074Z,100078.55
2023-01-11T11:04:17.548Z,100078.88
2023-01-11T11:06:22.027Z,100075.6
2023-01-11T11:08:26.503Z,100074.98
2023-01-11T11:10:31.171Z,100071.97
2023-01-11T11:12:35.601Z,100058.45
2023-01-11T11:14:40.356Z,100054.73
2023-01-11T11:16:45.546Z,100049.66
2023-01-11T11:18:50.188Z,100046.01
2023-01-11T11:20:54.796Z,100040.11
2023-01-11T11:22:59.153Z,100040.23
2023-01-11T11:25:03.748Z,100029.73
2023-01-11T11:27:08.340Z,100024.94
2023-01-11T11:29:13.042Z,100028.16
2023-01-11T11:31:17.551Z,100025.32
2023-01-11T11:33:21.995Z,100018.42
2023-01-11T11:35:26.550Z,100019.68
2023-01-11T11:37:30.972Z,100011.03
2023-01-11T11:39:35.391Z,100010.75
2023-01-11T11:41:39.800Z,100007.02
2023-01-11T11:43:44.310Z,100006.31
2023-01-11T11:45:48.937Z,100002.88
2023-01-11T11:47:53.666Z,99999.83
2023-01-11T11:49:58.053Z,99991.08
2023-01-11T11:52:02.454Z,99990.45
2023-01-11T11:54:06.804Z,99987.11
2023-01-11T11:56:11.198Z,99992.73
2023-01-11T11:58:15.747Z,99985.41
2023-01-11T12:00:20.116Z,99988.37
2023-01-11T12:02:24.693Z,99984.28
2023-01-11T12:04:29.149Z,99985.2
2023-01-11T12:06:33.492Z,99979.35
2023-01-11T12:08:37.864Z,99980.42
2023-01-11T12:10:42.196Z,99978.51
2023-01-11T12:12:46.520Z,99985.53
2023-01-11T12:14:50.868Z,99989.48
2023-01-11T12:16:55.313Z,99988.72
2023-01-11T12:18:59.853Z,99982.46
2023-01-11T12:21:04.329Z,99986.67
2023-01-11T12:23:08.642Z,99985.27
2023-01-11T12:25:12.986Z,99988.62
2023-01-11T12:27:17.627Z,99987.07
2023-01-11T12:29:22.072Z,99992.92
2023-01-11T12:31:26.460Z,99992.92
2023-01-11T12:33:30.834Z,99983.59
2023-01-11T12:35:35.209Z,99983.65
2023-01-11T12:37:39.548Z,99986.59
2023-01-11T12:39:43.912Z,99984.84
2023-01-11T12:41:48.282Z,99983.58
2023-01-11T12:43:52.713Z,99981.56
2023-01-11T12:45:57.245Z,99970.48
2023-01-11T12:48:01.681Z,99972.84
2023-01-11T12:50:06.049Z,99969.77
2023-01-11T12:52:10.519Z,99967.89
2023-01-11T12:54:14.971Z,99961.81
2023-01-11T12:56:19.346Z,99964.3
2023-01-11T12:58:23.794Z,99959.08
2023-01-11T13:00:28.236Z,99957.8
2023-01-11T13:02:32.710Z,99950.08
2023-01-11T13:04:37.222Z,99950.67
2023-01-11T13:06:41.655Z,99945.55
2023-01-11T13:08:46.006Z,99941.16
2023-01-11T13:10:50.371Z,99939.98
2023-01-11T13:12:54.743Z,99942.81
2023-01-11T13:14:59.128Z,99940.38
2023-01-11T13:17:03.604Z,99938.95
2023-01-11T13:19:08.234Z,99938.35
2023-01-11T13:21:12.657Z,99938.53
2023-01-11T13:23:16.987Z,99940.95
2023-01-11T13:25:21.338Z,99934.85
2023-01-11T13:27:26.001Z,99930.48
2023-01-11T13:29:30.380Z,99928.22
2023-01-11T13:31:34.732Z,99925.59
2023-01-11T13:33:39.088Z,99929.99
2023-01-11T13:35:43.497Z,99928.09
2023-01-11T13:37:47.850Z,99922.95
2023-01-11T13:39:52.222Z,99918.67
2023-01-11T13:41:56.476Z,99917.28
2023-01-11T13:44:00.811Z,99918.33
2023-01-11T13:46:05.432Z,99920.1
2023-01-11T13:48:09.837Z,99919.98
2023-01-11T13:50:14.188Z,99916.18
2023-01-11T13:52:18.574Z,99917.28
2023-01-11T13:54:22.898Z,99913.23
2023-01-11T13:56:27.260Z,99909.65
2023-01-11T13:58:31.669Z,99910.14
2023-01-11T14:00:36.208Z,99912.05
2023-01-11T14:02:40.653Z,99910.92
2023-01-11T14:04:45.020Z,99907.78
2023-01-11T14:06:49.366Z,99900.61
2023-01-11T14:08:53.860Z,99901.13
2023-01-11T14:10:58.218Z,99895.41
2023-01-11T14:13:02.586Z,99898.41
2023-01-11T14:15:07.134Z,99901.3
2023-01-11T14:17:11.547Z,99896.77
2023-01-11T14:19:15.907Z,99895.98
2023-01-11T14:21:20.435Z,99898.98
2023-01-11T14:23:24.776Z,99896.96
2023-01-11T14:25:29.183Z,99895.28
2023-01-11T14:27:33.520Z,99897.08
2023-01-11T14:29:37.882Z,99895
2023-01-11T14:31:42.542Z,99891.19
2023-01-11T14:33:46.992Z,99886.56
2023-01-11T14:35:51.360Z,99890.44
2023-01-11T14:37:55.762Z,99881.34
2023-01-11T14:40:00.119Z,99881.09
2023-01-11T14:42:04.538Z,99883.16
2023-01-11T14:44:08.920Z,99884.14
2023-01-11T14:46:13.474Z,99884.27
2023-01-11T14:48:17.939Z,99885.55
2023-01-11T14:50:22.306Z,99876.34
2023-01-11T14:52:40.920Z,99884.18
2023-01-11T14:54:46.163Z,99877.88
2023-01-11T14:56:50.537Z,99879.52
2023-01-11T14:58:55.046Z,99881.34
2023-01-11T15:00:59.471Z,99876.77
2023-01-11T15:03:03.845Z,99875.75
2023-01-11T15:05:08.359Z,99872.76
2023-01-11T15:07:12.770Z,99873.06
2023-01-11T15:09:17.109Z,99878.17
2023-01-11T15:11:21.496Z,99879.14
2023-01-11T15:13:25.915Z,99876.44
2023-01-11T15:15:30.280Z,99876.16
2023-01-11T15:17:34.690Z,99876.27
2023-01-11T15:19:39.077Z,99873.5
2023-01-11T15:21:43.469Z,99872.94
2023-01-11T15:23:47.819Z,99870.37
2023-01-11T15:25:52.213Z,99874.08
2023-01-11T15:27:56.619Z,99876.7
2023-01-11T15:30:01.220Z,99874.95
2023-01-11T15:32:05.834Z,99870.45
2023-01-11T15:34:10.151Z,99864.75
2023-01-11T15:36:14.529Z,99868.6
2023-01-11T15:38:18.838Z,99870.69
2023-01-11T15:40:23.160Z,99875.77
2023-01-11T15:42:27.507Z,99868.28
2023-01-11T15:44:31.838Z,99870.58
2023-01-11T15:46:36.313Z,99874.48
2023-01-11T15:48:40.887Z,99878.95
2023-01-11T15:50:45.332Z,99883.86
2023-01-11T15:52:49.733Z,99887.66
2023-01-11T15:54:54.229Z,99887.03
2023-01-11T15:56:58.719Z,99893.09
2023-01-11T15:59:03.167Z,99892.23
2023-01-11T16:01:07.976Z,99889.73
2023-01-11T16:03:12.525Z,99888.78
2023-01-11T16:05:16.867Z,99889.29
2023-01-11T16:07:21.221Z,99889.2
2023-01-11T16:09:25.781Z,99887.3
2023-01-11T16:11:30.189Z,99885.48
2023-01-11T16:13:34.601Z,99883.72
2023-01-11T16:15:39.068Z,99882.8
2023-01-11T16:17:43.480Z,99885.98
2023-01-11T16:19:47.848Z,99889.73
2023-01-11T16:21:52.209Z,99887.89
2023-01-11T16:23:56.609Z,99892.15
2023-01-11T16:26:00.963Z,99887.72
2023-01-11T16:28:05.418Z,99882.63
2023-01-11T16:30:09.881Z,99886.84
2023-01-11T16:32:14.232Z,99882.3
2023-01-11T16:34:18.612Z,99883.18
2023-01-11T16:36:22.981Z,99876.55
2023-01-11T16:38:27.370Z,99876.73
2023-01-11T16:40:31.837Z,99880.63
2023-01-11T16:42:36.359Z,99879.36
2023-01-11T16:44:40.992Z,99888.81
2023-01-11T16:46:45.408Z,99886.36
2023-01-11T16:48:49.954Z,99880.96
2023-01-11T16:50:54.356Z,99878.94
2023-01-11T16:52:58.836Z,99881.13
2023-01-11T16:55:03.343Z,99871.67
2023-01-11T16:57:08.000Z,99874.38
2023-01-11T16:59:12.383Z,99869.3
2023-01-11T17:01:16.966Z,99874.2
2023-01-11T17:03:21.580Z,99874.97
2023-01-11T17:05:25.946Z,99876.2
2023-01-11T17:07:30.341Z,99870.56
2023-01-11T17:09:35.081Z,99873.77
2023-01-11T17:11:39.456Z,99879.33
2023-01-11T17:13:43.809Z,99875.72
2023-01-11T17:15:48.168Z,99881.55
2023-01-11T17:17:52.559Z,99873.48
2023-01-11T17:19:56.929Z,99869.52
2023-01-11T17:22:01.661Z,99877.69
2023-01-11T17:24:06.073Z,99869.98
2023-01-11T17:26:15.869Z,99875.34
2023-01-11T17:28:20.290Z,99872.45
2023-01-11T17:30:24.772Z,99876.81
2023-01-11T17:32:29.199Z,99875.38
2023-01-11T17:34:33.586Z,99877.56
2023-01-11T17:36:38.026Z,99876.59
2023-01-11T17:38:42.450Z,99876.19
2023-01-11T17:40:46.878Z,99871.66
2023-01-11T17:42:51.252Z,99868.73
2023-01-11T17:44:55.648Z,99869.48
2023-01-11T17:47:00.031Z,99862.08
2023-01-11T17:49:04.428Z,99863.06
2023-01-11T17:51:08.793Z,99864.08
2023-01-11T17:53:13.207Z,99864.42
2023-01-11T17:55:17.614Z,99867.19
2023-01-11T17:57:21.997Z,99869.92
2023-01-11T17:59:26.493Z,99867.08
2023-01-11T18:01:31.074Z,99867.22
2023-01-11T18:03:35.618Z,99865.7
2023-01-11T18:05:40.111Z,99868.7
2023-01-11T18:07:44.480Z,99866.84
2023-01-11T18:09:48.857Z,99875.05
2023-01-11T18:11:53.201Z,99877.52
2023-01-11T18:13:57.632Z,99879.8
2023-01-11T18:16:02.162Z,99878.63
2023-01-11T18:18:06.563Z,99881.22
2023-01-11T18:20:10.945Z,99881.36
2023-01-11T18:22:15.235Z,99878.59
2023-01-11T18:24:19.956Z,99882.52
2023-01-11T18:26:24.331Z,99886.05
2023-01-11T18:28:28.680Z,99881.9
2023-01-11T18:30:33.223Z,99883.94
2023-01-11T18:32:37.594Z,99885.75
2023-01-11T18:34:41.905Z,99886.14
2023-01-11T18:36:46.426Z,99886.83
2023-01-11T18:38:50.814Z,99890.62
2023-01-11T18:40:55.195Z,99891.85
2023-01-11T18:42:59.532Z,99894.92
2023-01-11T18:45:03.868Z,99891.32
2023-01-11T18:47:08.248Z,99893.41
2023-01-11T18:49:12.589Z,99893.3
2023-01-11T18:51:17.422Z,99894.22
2023-01-11T18:53:21.881Z,99902.52
2023-01-11T18:55:26.263Z,99903.84
2023-01-11T18:57:30.695Z,99905.96
2023-01-11T18:59:35.136Z,99906.47
2023-01-11T19:02:04.640Z,99907.15
2023-01-11T19:04:20.628Z,99907.94
2023-01-11T19:06:25.012Z,99911.41
2023-01-11T19:08:31.659Z,99913.91
2023-01-11T19:10:36.180Z,99913.38
2023-01-11T19:12:40.551Z,99917.47
2023-01-11T19:14:45.007Z,99918.09
2023-01-11T19:16:49.382Z,99918.52
2023-01-11T19:18:53.763Z,99922.95
2023-01-11T19:20:58.114Z,99923.38
2023-01-11T19:23:02.446Z,99923.07
2023-01-11T19:25:06.785Z,99924.14
2023-01-11T19:27:11.397Z,99928.32
2023-01-11T19:29:15.887Z,99929.81
2023-01-11T19:31:20.425Z,99923.59
2023-01-11T19:33:24.940Z,99924.86
2023-01-11T19:35:29.302Z,99924.15
2023-01-11T19:37:33.687Z,99927.23
2023-01-11T19:39:38.090Z,99930.73
2023-01-11T19:41:42.438Z,99934.27
2023-01-11T19:43:46.801Z,99934.2
2023-01-11T19:45:51.304Z,99941.29
2023-01-11T19:47:55.738Z,99939.02
2023-01-11T19:50:00.110Z,99943.35
2023-01-11T19:52:04.465Z,99944.14
2023-01-11T19:54:08.991Z,99945.22
2023-01-11T19:56:13.370Z,99954.33
2023-01-11T19:58:17.807Z,99961.61
2023-01-11T20:00:22.212Z,99960.8
2023-01-11T20:02:26.721Z,99968.96
2023-01-11T20:04:31.151Z,99968.52
2023-01-11T20:06:35.573Z,99970.42
2023-01-11T20:08:40.000Z,99973.4
2023-01-11T20:10:44.524Z,99979.39
2023-01-11T20:12:48.866Z,99981.63
2023-01-11T20:14:53.217Z,99983.03
2023-01-11T20:16:59.693Z,99982.44
2023-01-11T20:19:04.083Z,99985.67
2023-01-11T20:21:08.446Z,99988.09
2023-01-11T20:23:12.886Z,99986.38
2023-01-11T20:25:17.281Z,99990.14
2023-01-11T20:27:21.642Z,99988.23
2023-01-11T20:29:26.024Z,99993.59
2023-01-11T20:31:30.492Z,99994.53
2023-01-11T20:33:35.041Z,99991.08
2023-01-11T20:35:39.484Z,99993.3
2023-01-11T20:37:43.828Z,99998.59
2023-01-11T20:39:48.203Z,99996.48
2023-01-11T20:41:52.588Z,99995.64
2023-01-11T20:43:56.965Z,99999.59
2023-01-11T20:46:01.506Z,99999.55
2023-01-11T20:48:05.999Z,100005.58
2023-01-11T20:50:10.436Z,100008.17
2023-01-11T20:52:14.992Z,100009.74
2023-01-11T20:54:19.577Z,100014.61
2023-01-11T20:56:24.072Z,100013.36
2023-01-11T20:58:28.556Z,100014.14
2023-01-11T21:00:33.003Z,100020.13
2023-01-11T21:02:37.572Z,100020.08
2023-01-11T21:04:42.143Z,100023.06
2023-01-11T21:06:46.617Z,100023.39
2023-01-11T21:08:51.111Z,100025.9
2023-01-11T21:10:55.580Z,100021.67
2023-01-11T21:13:01.844Z,100025.49
2023-01-11T21:15:06.378Z,100024.52
2023-01-11T21:17:10.883Z,100023.23
2023-01-11T21:19:15.461Z,100022.84
2023-01-11T21:21:19.916Z,100025.81
2023-01-11T21:23:24.407Z,100018.59
2023-01-11T21:25:28.903Z,100020.81
2023-01-11T21:27:33.491Z,100016.05
2023-01-11T21:29:37.942Z,100019.39
2023-01-11T21:31:42.666Z,100018.05
2023-01-11T21:33:47.236Z,100021.5
2023-01-11T21:35:51.645Z,100019.45
2023-01-11T21:37:56.079Z,100023.78
2023-01-11T21:40:00.633Z,100020.16
2023-01-11T21:42:05.027Z,100024.44
2023-01-11T21:44:09.519Z,100022.27
2023-01-11T21:46:14.180Z,100024.28
2023-01-11T21:48:18.673Z,100029.06
2023-01-11T21:50:23.105Z,100027.06
2023-01-11T21:52:27.501Z,100030.05
2023-01-11T21:54:31.966Z,100031.73
2023-01-11T21:56:36.384Z,100034.63
2023-01-11T21:58:40.766Z,100036.57
2023-01-11T22:00:45.392Z,100042.98
2023-01-11T22:02:49.907Z,100044.49
2023-01-11T22:04:54.325Z,100040.73
2023-01-11T22:07:00.277Z,100047.72
2023-01-11T22:09:05.165Z,100044.59
2023-01-11T22:11:09.577Z,100045.92
2023-01-11T22:13:13.942Z,100048.04
2023-01-11T22:15:18.363Z,100048.72
2023-01-11T22:17:22.747Z,100051.98
2023-01-11T22:19:27.142Z,100047.81
2023-01-11T22:21:31.565Z,100050.14
2023-01-11T22:23:35.959Z,100050.61
2023-01-11T22:25:40.396Z,100048.25
2023-01-11T22:27:44.796Z,100062.14
2023-01-11T22:29:49.243Z,100059.88
2023-01-11T22:31:53.805Z,100065.5
2023-01-11T22:33:58.681Z,100064.22
2023-01-11T22:36:03.054Z,100068.08
2023-01-11T22:38:07.511Z,100072.05
2023-01-11T22:40:11.982Z,100065.78
2023-01-11T22:42:16.444Z,100061.67
2023-01-11T22:44:20.864Z,100061.17
2023-01-11T22:46:25.324Z,100062.98
2023-01-11T22:48:29.738Z,100067.84
2023-01-11T22:50:34.174Z,100065.25
2023-01-11T22:52:38.662Z,100069.06
2023-01-11T22:54:43.133Z,100069.84
2023-01-11T22:56:47.628Z,100076.45
2023-01-11T22:58:52.076Z,100076.75
2023-01-11T23:00:56.537Z,100076.47
2023-01-11T23:03:01.243Z,100082.38
2023-01-11T23:05:05.824Z,100078.38
2023-01-11T23:07:10.333Z,100071.75
2023-01-11T23:09:17.338Z,100069.02
2023-01-11T23:11:21.775Z,100071.18
2023-01-11T23:13:26.271Z,100067.3
2023-01-11T23:15:30.723Z,100067.69
2023-01-11T23:17:35.164Z,100066.48
2023-01-11T23:19:39.696Z,100068.94
2023-01-11T23:21:44.234Z,100070.53
2023-01-11T23:23:48.689Z,100068.98
2023-01-11T23:25:53.133Z,100068.94
2023-01-11T23:27:57.580Z,100070.24
2023-01-11T23:30:02.119Z,100068.09
2023-01-11T23:32:06.734Z,100069.69
2023-01-11T23:34:11.258Z,100074.77
2023-01-11T23:36:15.797Z,100077.02
2023-01-11T23:38:20.206Z,100072.21
2023-01-11T23:40:24.597Z,100074.73
2023-01-11T23:42:29.051Z,100073.23
2023-01-11T23:44:33.564Z,100073.22
2023-01-11T23:46:37.983Z,100079.89
2023-01-11T23:48:42.489Z,100084.93
2023-01-11T23:50:46.906Z,100078.48
2023-01-11T23:52:51.305Z,100086.88
2023-01-11T23:54:55.879Z,100084.1
2023-01-11T23:57:00.492Z,100078.81
2023-01-11T23:59:04.969Z,100080.48
